Lake Village, Arkansas
Current Conditions -  °F | °C
As of 11:53 PM on Wednesday 26 Nov 2014 (Local Time) from KGLH Reporting Station
Clear Clear  
Wind Chill: 41°   Ceiling: Unl
Heat Index: 46°   Visibility: 10mi
Dew Point: 32°   Wind: 10mph
Humidity: 58%   Direction: 320°NW
Pressure: 30.25"   Gusts: NA
Location:  33.33°N, 91.28°W
Report Text: KGLH 270553Z AUTO 32009KT 10SM CLR 08/00 A3025 RMK AO2 SLP251 T00780000 10106 20067 401830000 53017
Loading
Personal Weather Stations






























Interactive Weather Map New forecast layout! Learn more

10-Day Weather Forecast

Advertisements
Track Severe Weather on mobile